Time;durP1;ratioP1;P1;durP2;ratioP2;P2;SDS_P1;SDS_P2;PMS_P1;PMS_P2;Temp;Humidity;BMP_temperature;BMP_pressure;BME280_temperature;BME280_humidity;BME280_pressure;Samples;Min_cycle;Max_cycle;Signal;HPM_P1;HPM_P2
2022/11/30 00:01:21;;;;;;;6.55;5.65;;;;;;;18.82;51.53;101279.56;5014319;28;20048;-77
2022/11/30 00:03:53;;;;;;;7.05;6.22;;;;;;;18.80;51.52;101276.16;5014825;28;20049;-77
2022/11/30 00:06:22;;;;;;;7.47;6.00;;;;;;;18.80;51.28;101277.97;5014585;28;20053;-77
2022/11/30 00:08:56;;;;;;;7.50;6.32;;;;;;;18.80;51.33;101278.84;5014561;28;20045;-77
2022/11/30 00:11:26;;;;;;;7.25;6.35;;;;;;;18.80;51.36;101278.84;5014747;28;20046;-77
2022/11/30 00:13:53;;;;;;;6.80;6.10;;;;;;;18.79;51.48;101274.44;5006573;28;20050;-78
2022/11/30 00:16:21;;;;;;;7.35;6.07;;;;;;;18.80;51.58;101273.47;5014515;28;20042;-77
2022/11/30 00:18:49;;;;;;;7.40;6.20;;;;;;;18.80;51.28;101283.34;5014606;28;20049;-77
2022/11/30 00:21:17;;;;;;;6.93;5.65;;;;;;;18.78;51.31;101284.31;5014515;28;20053;-77
2022/11/30 00:23:46;;;;;;;6.70;5.95;;;;;;;18.78;51.26;101275.41;5014480;28;20053;-77
2022/11/30 00:26:16;;;;;;;7.47;5.80;;;;;;;18.78;51.42;101280.78;5014533;28;20053;-77
2022/11/30 00:28:44;;;;;;;6.68;5.43;;;;;;;18.78;51.32;101276.25;5011090;28;20054;-76
2022/11/30 00:31:14;;;;;;;6.07;5.47;;;;;;;18.77;51.16;101277.25;4994344;28;20053;-77
2022/11/30 00:33:43;;;;;;;7.40;6.00;;;;;;;18.78;51.28;101272.72;4994842;28;20057;-77
2022/11/30 00:36:18;;;;;;;7.70;5.85;;;;;;;18.77;51.39;101271.03;5009379;28;20067;-77
2022/11/30 00:38:46;;;;;;;6.35;5.68;;;;;;;18.76;51.25;101264.81;4994709;28;20387;-77
2022/11/30 00:41:14;;;;;;;7.57;5.80;;;;;;;18.76;51.17;101270.19;4994130;28;20066;-77
2022/11/30 00:43:41;;;;;;;7.60;6.15;;;;;;;18.76;51.33;101269.31;5009139;28;20056;-76
2022/11/30 00:46:09;;;;;;;6.45;5.57;;;;;;;18.76;51.22;101278.22;5009860;28;20046;-77
2022/11/30 00:48:37;;;;;;;6.50;5.43;;;;;;;18.76;51.25;101277.38;4994634;28;20522;-77
2022/11/30 00:51:06;;;;;;;6.63;5.30;;;;;;;18.76;51.09;101277.38;4994524;28;20046;-77
2022/11/30 00:53:33;;;;;;;7.07;6.00;;;;;;;18.75;50.94;101268.44;4994562;28;20053;-76
2022/11/30 00:56:01;;;;;;;7.78;5.88;;;;;;;18.74;51.14;101266.75;5009309;28;20497;-77
2022/11/30 00:58:28;;;;;;;7.35;5.72;;;;;;;18.74;51.21;101269.44;4994393;28;20042;-77
2022/11/30 01:00:55;;;;;;;7.00;5.47;;;;;;;18.74;51.02;101276.63;4994667;28;20054;-77
2022/11/30 01:03:23;;;;;;;6.45;5.85;;;;;;;18.73;51.17;101275.78;4994403;28;20490;-77
2022/11/30 01:05:50;;;;;;;6.00;5.10;;;;;;;18.73;51.00;101273.09;4994684;28;20051;-77
2022/11/30 01:08:18;;;;;;;7.60;5.50;;;;;;;18.74;51.07;101276.63;4994398;28;20054;-78
2022/11/30 01:10:48;;;;;;;7.55;5.88;;;;;;;18.73;51.11;101273.09;4994246;28;20050;-78
2022/11/30 01:13:15;;;;;;;6.53;5.75;;;;;;;18.73;50.95;101275.78;4997471;28;20514;-77
2022/11/30 01:15:43;;;;;;;7.47;6.13;;;;;;;18.71;50.77;101277.69;5010702;28;20045;-77
2022/11/30 01:18:11;;;;;;;6.35;5.18;;;;;;;18.73;50.82;101281.13;5011888;28;20061;-78
2022/11/30 01:20:42;;;;;;;7.13;6.15;;;;;;;18.71;50.65;101277.69;5012695;28;20512;-78
2022/11/30 01:23:10;;;;;;;7.22;5.60;;;;;;;18.70;50.79;101281.34;5014017;28;20410;-78
2022/11/30 01:25:38;;;;;;;5.75;5.15;;;;;;;18.71;50.72;101280.38;5014094;28;20068;-78
2022/11/30 01:28:05;;;;;;;6.47;5.78;;;;;;;18.71;50.81;101279.53;5013350;28;20379;-78
2022/11/30 01:30:33;;;;;;;6.90;5.85;;;;;;;18.71;50.79;101277.69;5013949;28;20053;-78
2022/11/30 01:33:02;;;;;;;7.03;5.70;;;;;;;18.70;50.95;101278.69;5014269;28;20521;-78
2022/11/30 01:35:29;;;;;;;6.13;5.53;;;;;;;18.70;51.11;101280.50;5013830;28;20512;-78
2022/11/30 01:37:57;;;;;;;5.82;5.22;;;;;;;18.70;50.95;101276.00;5013595;28;20037;-78
2022/11/30 01:40:24;;;;;;;7.22;6.22;;;;;;;18.69;50.77;101276.94;5013988;28;20058;-78
2022/11/30 01:42:51;;;;;;;6.07;5.13;;;;;;;18.70;50.99;101276.00;5013825;28;20054;-78
2022/11/30 01:45:18;;;;;;;6.90;5.60;;;;;;;18.70;50.92;101273.31;5013822;28;20046;-78
2022/11/30 01:47:50;;;;;;;6.47;5.82;;;;;;;18.70;50.79;101286.72;5013694;28;20663;-78
2022/11/30 01:50:21;;;;;;;;;;;;;;;18.69;51.01;101285.00;5018011;28;20049;-78
2022/11/30 01:52:55;;;;;;;6.50;5.88;;;;;;;18.70;51.04;101284.03;5048951;28;19921;-77
2022/11/30 01:55:33;;;;;;;6.80;5.70;;;;;;;18.70;51.05;101280.50;5031832;28;20056;-77
2022/11/30 01:58:06;;;;;;;5.22;4.72;;;;;;;18.69;51.01;101279.63;5017430;28;20052;-78
2022/11/30 02:00:34;;;;;;;6.22;5.53;;;;;;;18.69;51.29;101282.31;5017280;28;20057;-78
2022/11/30 02:03:27;;;;;;;6.25;5.45;;;;;;;18.68;50.88;101283.28;5017292;28;20046;-78
2022/11/30 02:05:56;;;;;;;7.05;5.35;;;;;;;18.69;51.00;101282.31;5015540;28;20058;-77
2022/11/30 02:08:24;;;;;;;7.20;5.93;;;;;;;18.69;51.02;101292.19;5016671;28;20405;-77
2022/11/30 02:10:54;;;;;;;6.97;5.68;;;;;;;18.69;50.93;101282.31;5016655;28;20054;-77
2022/11/30 02:13:39;;;;;;;7.53;5.88;;;;;;;18.69;51.03;101286.81;5016948;28;20055;-76
2022/11/30 02:16:17;;;;;;;7.13;5.93;;;;;;;18.68;50.93;101277.91;5008342;28;20050;-77
2022/11/30 02:19:38;;;;;;;6.68;5.57;;;;;;;18.68;50.82;101280.59;4996938;28;20061;-77
2022/11/30 02:22:31;;;;;;;5.72;4.85;;;;;;;18.68;50.94;101275.25;4997126;28;20042;-79
2022/11/30 02:25:17;;;;;;;5.57;4.93;;;;;;;18.67;50.90;101270.81;4997031;28;20046;-77
2022/11/30 02:28:08;;;;;;;6.70;5.28;;;;;;;18.67;51.10;101270.81;4997119;28;20057;-77
2022/11/30 02:30:41;;;;;;;6.78;5.93;;;;;;;18.66;51.07;101271.81;4996835;28;20054;-78
2022/11/30 02:33:12;;;;;;;;;;;;;;;18.66;51.23;101271.81;5012476;28;20054;-77
2022/11/30 02:35:44;;;;;;;7.63;5.72;;;;;;;18.67;51.17;101268.13;4997119;28;19944;-77
2022/11/30 02:38:20;;;;;;;5.85;4.97;;;;;;;18.66;51.01;101269.13;5011981;28;20050;-77
2022/11/30 02:40:48;;;;;;;5.45;4.95;;;;;;;18.66;51.33;101266.44;4996276;28;20050;-77
2022/11/30 02:43:18;;;;;;;6.68;5.57;;;;;;;18.66;50.92;101265.59;4996879;28;20046;-77
2022/11/30 02:46:12;;;;;;;6.40;5.43;;;;;;;18.65;51.19;101263.88;4996824;28;20517;-77
2022/11/30 02:48:47;;;;;;;6.35;5.60;;;;;;;18.65;51.10;101264.75;4974793;28;20067;-77
2022/11/30 02:51:20;;;;;;;5.90;5.07;;;;;;;18.66;50.98;101266.44;4975247;28;20557;-77
2022/11/30 02:53:47;;;;;;;;;;;;;;;18.65;51.23;101270.09;4975654;28;20067;-76
2022/11/30 02:56:16;;;;;;;6.13;5.40;;;;;;;18.65;51.16;101266.56;4974449;28;19926;-77
2022/11/30 02:58:44;;;;;;;7.63;5.93;;;;;;;18.65;51.16;101267.41;4974510;28;20058;-77
2022/11/30 03:01:11;;;;;;;6.32;5.45;;;;;;;18.64;51.25;101263.03;4957845;28;20065;-77
2022/11/30 03:03:38;;;;;;;8.20;5.72;;;;;;;18.65;51.23;101255.84;4974637;28;20055;-77
2022/11/30 03:06:06;;;;;;;7.78;4.57;;;;;;;18.65;51.18;101261.22;4974272;28;20062;-77
2022/11/30 03:08:33;;;;;;;5.53;4.85;;;;;;;18.65;51.19;101263.88;4974818;28;20054;-78
2022/11/30 03:11:02;;;;;;;5.47;4.80;;;;;;;18.65;51.06;101262.06;4975037;28;20054;-78
2022/11/30 03:13:31;;;;;;;6.50;5.55;;;;;;;18.65;51.26;101263.88;4974721;28;20078;-77
2022/11/30 03:16:05;;;;;;;5.30;4.50;;;;;;;18.64;51.18;101263.03;4983262;28;20046;-78
2022/11/30 03:18:32;;;;;;;8.20;5.43;;;;;;;18.64;51.17;101263.03;4977771;28;20514;-77
2022/11/30 03:20:59;;;;;;;5.82;4.93;;;;;;;18.64;51.10;101271.09;4993804;28;20050;-77
2022/11/30 03:23:28;;;;;;;6.78;5.00;;;;;;;18.64;51.26;101263.03;4993787;28;20057;-77
2022/11/30 03:25:57;;;;;;;6.18;5.50;;;;;;;18.64;51.19;101263.03;4995047;28;20058;-77
2022/11/30 03:28:25;;;;;;;6.88;5.68;;;;;;;18.64;51.28;101264.88;4994921;28;20490;-77
2022/11/30 03:30:52;;;;;;;7.20;5.68;;;;;;;18.63;51.10;101263.13;4994836;28;20050;-77
2022/11/30 03:33:20;;;;;;;5.88;5.22;;;;;;;18.64;51.27;101264.88;4995764;28;20057;-77
2022/11/30 03:35:47;;;;;;;6.40;5.43;;;;;;;18.63;51.17;101265.81;4996170;28;20050;-78
2022/11/30 03:38:14;;;;;;;7.40;5.10;;;;;;;18.63;51.10;101261.31;4995408;28;20047;-77
2022/11/30 03:40:41;;;;;;;5.85;5.25;;;;;;;18.63;50.96;101261.31;4995415;28;20073;-78
2022/11/30 03:43:09;;;;;;;5.35;4.85;;;;;;;18.63;51.40;101260.44;4995566;28;20043;-77
2022/11/30 03:45:36;;;;;;;5.85;4.72;;;;;;;18.62;51.18;101261.44;4994059;28;20077;-77
2022/11/30 03:48:03;;;;;;;6.13;4.75;;;;;;;18.62;51.39;101270.31;4993651;28;20407;-77
2022/11/30 03:50:31;;;;;;;6.50;5.10;;;;;;;18.62;51.20;101266.78;4994049;28;20494;-77
2022/11/30 03:52:58;;;;;;;5.65;4.75;;;;;;;18.62;51.44;101264.97;4995186;28;20046;-77
2022/11/30 03:55:25;;;;;;;6.40;5.65;;;;;;;18.61;51.35;101260.59;4995627;28;20054;-77
2022/11/30 03:57:52;;;;;;;7.28;5.63;;;;;;;18.62;51.28;101264.97;4994992;28;20050;-77
2022/11/30 04:00:20;;;;;;;6.10;5.40;;;;;;;18.61;51.29;101268.63;4995060;28;20050;-78
2022/11/30 04:02:47;;;;;;;5.25;4.75;;;;;;;18.60;51.30;101261.56;4998221;28;20041;-77
2022/11/30 04:05:15;;;;;;;6.05;5.43;;;;;;;18.61;51.25;101262.41;5013700;28;20054;-77
2022/11/30 04:07:42;;;;;;;5.75;4.57;;;;;;;18.60;51.42;101266.06;5013218;28;20117;-77
2022/11/30 04:10:10;;;;;;;6.15;5.22;;;;;;;18.60;51.16;101258.03;5014757;28;20058;-77
2022/11/30 04:12:37;;;;;;;6.25;5.10;;;;;;;18.60;51.13;101268.75;5013385;28;20053;-78
2022/11/30 04:15:05;;;;;;;6.13;5.20;;;;;;;18.59;51.20;101267.03;5014561;28;20042;-77
2022/11/30 04:17:33;;;;;;;7.00;5.57;;;;;;;18.60;51.10;101266.06;5008237;28;20493;-77
2022/11/30 04:20:00;;;;;;;5.75;5.18;;;;;;;18.59;51.39;101270.56;5014315;28;20057;-77
2022/11/30 04:22:27;;;;;;;6.00;5.43;;;;;;;18.59;51.34;101275.91;5014069;28;20057;-77
2022/11/30 04:24:55;;;;;;;6.38;5.25;;;;;;;18.59;51.20;101275.91;5014543;28;20509;-77
2022/11/30 04:27:22;;;;;;;5.68;4.68;;;;;;;18.60;51.37;101283.00;5014460;28;20052;-77
2022/11/30 04:29:50;;;;;;;6.97;5.28;;;;;;;18.59;51.35;101273.22;5014401;28;20049;-77
2022/11/30 04:32:17;;;;;;;6.05;4.93;;;;;;;18.58;51.16;101279.56;5014440;28;20441;-77
2022/11/30 04:34:44;;;;;;;5.28;4.50;;;;;;;18.59;51.24;101272.38;5014507;28;20053;-77
2022/11/30 04:37:12;;;;;;;5.80;5.07;;;;;;;18.59;51.10;101285.78;5014218;28;20057;-77
2022/11/30 04:39:40;;;;;;;8.80;5.80;;;;;;;18.58;51.17;101284.94;5014229;28;20050;-77
2022/11/30 04:42:07;;;;;;;6.28;5.30;;;;;;;18.59;51.34;101285.78;5014515;28;20050;-78
2022/11/30 04:44:34;;;;;;;7.78;5.50;;;;;;;18.59;51.22;101285.78;5014483;28;20096;-77
2022/11/30 04:47:02;;;;;;;5.90;5.20;;;;;;;18.58;50.57;101279.56;5014536;28;20050;-77
2022/11/30 04:49:29;;;;;;;7.30;5.47;;;;;;;18.58;50.58;101278.72;5014733;28;20494;-78
2022/11/30 04:51:57;;;;;;;5.63;4.68;;;;;;;18.58;51.06;101290.31;5029011;28;20077;-78
2022/11/30 04:54:24;;;;;;;6.00;4.72;;;;;;;18.59;51.21;101277.75;5013901;28;20054;-77
2022/11/30 04:56:51;;;;;;;5.13;4.55;;;;;;;18.59;51.57;101286.66;5014287;28;20069;-78
2022/11/30 04:59:19;;;;;;;8.70;5.32;;;;;;;18.58;51.20;101276.91;5014497;28;20406;-77
2022/11/30 05:01:46;;;;;;;6.68;4.78;;;;;;;18.58;51.21;101278.72;5014323;28;20397;-77
2022/11/30 05:04:13;;;;;;;6.35;4.93;;;;;;;18.58;51.27;101281.41;5012568;28;20057;-77
2022/11/30 05:06:41;;;;;;;5.50;4.95;;;;;;;18.57;51.05;101287.75;5014293;28;20053;-78
2022/11/30 05:09:08;;;;;;;7.65;5.45;;;;;;;18.57;50.92;101287.75;5029336;28;20045;-78
2022/11/30 05:11:35;;;;;;;6.25;4.63;;;;;;;18.57;50.80;101293.97;5014355;28;20505;-78
2022/11/30 05:14:04;;;;;;;7.03;5.22;;;;;;;18.58;50.60;101300.19;5014558;28;20061;-79
2022/11/30 05:16:31;;;;;;;7.45;4.95;;;;;;;18.56;51.03;101292.25;5014318;28;20046;-78
2022/11/30 05:18:58;;;;;;;7.35;5.50;;;;;;;18.57;50.63;101288.59;5007755;28;20045;-78
2022/11/30 05:21:26;;;;;;;7.43;5.63;;;;;;;18.56;50.71;101286.03;5029058;28;20058;-77
2022/11/30 05:23:53;;;;;;;6.20;4.88;;;;;;;18.56;50.83;101289.56;5015504;28;20054;-77
2022/11/30 05:26:20;;;;;;;6.60;5.43;;;;;;;18.55;50.72;101290.53;5017973;28;20093;-76
2022/11/30 05:28:48;;;;;;;7.53;5.18;;;;;;;18.56;50.57;101294.09;4999193;28;20057;-77
2022/11/30 05:31:16;;;;;;;6.45;5.43;;;;;;;18.56;50.47;101294.94;4998252;28;20054;-76
2022/11/30 05:33:43;;;;;;;5.70;5.13;;;;;;;18.55;50.41;101290.53;4997944;28;20053;-77
2022/11/30 05:36:10;;;;;;;7.57;5.88;;;;;;;18.55;50.31;101290.53;4997885;28;20042;-77
2022/11/30 05:38:37;;;;;;;6.47;5.65;;;;;;;18.54;50.07;101296.88;5012842;28;20058;-77
2022/11/30 05:41:05;;;;;;;6.90;5.75;;;;;;;18.53;50.28;101296.00;4998092;28;20058;-77
2022/11/30 05:43:32;;;;;;;5.80;5.20;;;;;;;18.54;50.33;101295.03;5012399;28;20053;-76
2022/11/30 05:46:04;;;;;;;6.18;4.75;;;;;;;18.54;50.52;101294.19;4998533;28;20050;-77
2022/11/30 05:48:32;;;;;;;8.93;5.85;;;;;;;18.54;50.52;101294.19;4997984;28;20045;-77
2022/11/30 05:51:05;;;;;;;6.15;5.53;;;;;;;18.53;50.15;101293.34;4998102;28;20050;-78
2022/11/30 05:53:33;;;;;;;7.25;5.75;;;;;;;18.53;50.13;101287.97;4997849;28;20073;-78
2022/11/30 05:56:03;;;;;;;6.30;5.45;;;;;;;18.54;50.30;101278.09;4997786;28;20046;-78
2022/11/30 05:58:30;;;;;;;4.55;4.13;;;;;;;18.54;50.26;101299.53;4997727;28;20053;-77
2022/11/30 06:00:58;;;;;;;5.47;4.82;;;;;;;18.53;50.52;101287.13;4997835;28;20050;-78
2022/11/30 06:03:28;;;;;;;5.82;5.22;;;;;;;18.53;50.27;101289.81;4997595;28;20046;-77
2022/11/30 06:05:56;;;;;;;4.82;4.32;;;;;;;18.53;50.38;101293.34;5017498;28;20053;-77
2022/11/30 06:08:24;;;;;;;7.35;4.68;;;;;;;18.52;50.34;101291.63;5015708;28;20056;-76
2022/11/30 06:10:51;;;;;;;6.93;5.35;;;;;;;18.53;50.40;101297.84;5017004;28;20050;-77
2022/11/30 06:13:19;;;;;;;6.30;5.20;;;;;;;18.53;50.44;101292.47;5016076;28;20117;-77
2022/11/30 06:15:53;;;;;;;5.72;4.90;;;;;;;18.52;50.45;101294.31;5016831;28;20046;-77
2022/11/30 06:18:20;;;;;;;6.60;5.00;;;;;;;18.53;50.68;101293.34;5016580;28;20752;-77
2022/11/30 06:20:48;;;;;;;4.88;4.15;;;;;;;18.53;50.54;101297.84;5005775;28;20049;-77
2022/11/30 06:23:15;;;;;;;6.25;4.97;;;;;;;18.53;50.49;101303.22;5016654;28;20049;-77
2022/11/30 06:25:42;;;;;;;6.03;5.03;;;;;;;18.51;50.14;101289.94;5015108;28;20046;-77
2022/11/30 06:28:10;;;;;;;5.72;4.85;;;;;;;18.53;50.14;101292.47;5003326;28;20050;-77
2022/11/30 06:30:38;;;;;;;6.80;4.90;;;;;;;18.50;50.08;101285.50;4995672;28;20057;-77
2022/11/30 06:33:05;;;;;;;7.65;5.28;;;;;;;18.52;50.23;101293.47;4996791;28;20412;-77
2022/11/30 06:35:32;;;;;;;8.52;5.18;;;;;;;18.50;50.28;101303.44;4996435;28;20050;-77
2022/11/30 06:38:00;;;;;;;5.28;4.32;;;;;;;18.50;50.24;101303.44;4997674;28;20046;-78
2022/11/30 06:40:27;;;;;;;6.55;5.07;;;;;;;18.49;50.19;101313.31;4997218;28;20053;-78
2022/11/30 06:42:55;;;;;;;6.70;5.45;;;;;;;18.50;50.16;101311.47;4997027;28;20073;-78
2022/11/30 06:45:22;;;;;;;7.10;5.25;;;;;;;18.49;50.10;101317.81;4997658;28;20062;-78
2022/11/30 06:47:54;;;;;;;7.25;5.85;;;;;;;18.49;50.01;101320.50;4996640;28;20046;-78
2022/11/30 06:50:21;;;;;;;7.72;5.35;;;;;;;18.50;50.28;101327.56;4996604;28;20042;-77
2022/11/30 06:52:48;;;;;;;6.40;5.38;;;;;;;18.49;50.48;101326.72;4997466;28;20046;-78
2022/11/30 06:55:16;;;;;;;5.63;4.88;;;;;;;18.49;50.53;101323.19;5012123;28;20050;-78
2022/11/30 06:57:43;;;;;;;6.20;4.80;;;;;;;18.48;50.45;101322.31;4997345;28;20050;-78
2022/11/30 07:00:11;;;;;;;5.40;4.70;;;;;;;18.50;50.47;101322.19;4997001;28;20046;-78
2022/11/30 07:02:38;;;;;;;6.50;5.63;;;;;;;18.49;50.47;101318.66;4996163;28;20042;-77
2022/11/30 07:05:06;;;;;;;6.53;5.70;;;;;;;18.49;50.61;101331.22;5010565;28;20513;-77
2022/11/30 07:07:33;;;;;;;6.13;5.07;;;;;;;18.49;50.63;101333.91;4996198;28;20043;-76
2022/11/30 07:10:01;;;;;;;5.28;4.55;;;;;;;18.50;50.72;101335.59;4995788;28;20046;-77
2022/11/30 07:12:28;;;;;;;8.30;5.75;;;;;;;18.48;50.61;101338.41;5010224;28;20057;-77
2022/11/30 07:14:55;;;;;;;6.57;5.40;;;;;;;18.49;50.49;101345.47;4995431;28;20057;-77
2022/11/30 07:17:23;;;;;;;5.60;4.72;;;;;;;18.49;50.55;101342.78;4995771;28;20053;-77
2022/11/30 07:19:50;;;;;;;6.47;5.07;;;;;;;18.49;50.57;101336.59;5010554;28;20042;-77
2022/11/30 07:22:17;;;;;;;6.63;5.45;;;;;;;18.49;50.51;101328.53;5015765;28;20133;-76
2022/11/30 07:27:31;;;;;;;5.82;4.95;;;;;;;18.50;50.85;101332.91;5016847;28;20057;-77
2022/11/30 07:29:58;;;;;;;5.75;4.35;;;;;;;18.48;51.11;101325.00;5015964;28;20044;-78
2022/11/30 07:32:25;;;;;;;5.75;5.00;;;;;;;18.49;51.16;101324.03;5014385;28;20057;-79
2022/11/30 07:34:53;;;;;;;5.70;4.72;;;;;;;18.49;51.13;101318.66;5016228;28;20042;-79
2022/11/30 07:37:20;;;;;;;6.07;4.97;;;;;;;18.49;51.24;101326.72;5015972;28;20046;-78
2022/11/30 07:39:47;;;;;;;7.35;5.60;;;;;;;18.49;51.14;101333.91;5014477;28;20057;-79
2022/11/30 07:42:16;;;;;;;7.32;4.78;;;;;;;18.49;51.27;101334.75;5014125;28;20058;-79
2022/11/30 07:44:43;;;;;;;10.98;5.90;;;;;;;18.49;50.60;101347.31;5015305;28;20518;-78
2022/11/30 07:47:11;;;;;;;5.72;5.03;;;;;;;18.49;50.28;101349.97;5014780;28;20069;-78
2022/11/30 07:49:39;;;;;;;7.97;5.70;;;;;;;18.49;50.79;101348.16;5014612;28;20042;-82
2022/11/30 07:52:07;;;;;;;9.07;5.10;;;;;;;18.50;51.32;101340.97;5015697;28;20054;-80
2022/11/30 07:54:34;;;;;;;11.65;5.00;;;;;;;18.51;51.51;101343.56;5016516;28;20046;-81
2022/11/30 07:57:01;;;;;;;9.18;5.35;;;;;;;18.51;51.24;101342.66;5014534;28;20049;-81
2022/11/30 07:59:28;;;;;;;5.97;4.38;;;;;;;18.51;51.20;101343.56;5015896;28;20042;-81
2022/11/30 08:01:56;;;;;;;7.30;5.60;;;;;;;18.52;51.12;101339.03;5015946;28;20049;-80
2022/11/30 08:04:23;;;;;;;7.72;5.53;;;;;;;18.53;51.34;101351.47;5014653;28;20050;-80
2022/11/30 08:06:53;;;;;;;8.07;5.20;;;;;;;18.53;51.87;101357.69;5015028;28;20052;-81
2022/11/30 08:09:20;;;;;;;9.65;5.35;;;;;;;18.53;51.88;101359.50;5014364;28;20050;-81
2022/11/30 08:11:48;;;;;;;7.13;5.07;;;;;;;18.54;51.87;101363.91;5014208;28;20057;-81
2022/11/30 08:14:16;;;;;;;8.18;6.13;;;;;;;18.54;50.75;101369.25;5015509;28;20069;-81
2022/11/30 08:16:44;;;;;;;13.15;10.45;;;;;;;18.51;49.69;101365.00;5015148;28;20049;-81
2022/11/30 08:19:11;;;;;;;13.30;10.35;;;;;;;18.49;49.06;101372.28;5015486;28;20053;-81
2022/11/30 08:21:39;;;;;;;13.07;11.52;;;;;;;18.47;48.52;101368.88;5013885;28;20531;-81
2022/11/30 08:24:10;;;;;;;15.45;12.93;;;;;;;18.46;48.06;101366.28;5014228;28;20058;-81
2022/11/30 08:26:38;;;;;;;14.60;12.82;;;;;;;18.43;48.01;101370.06;5013995;28;20050;-81
2022/11/30 08:29:05;;;;;;;14.00;12.50;;;;;;;18.40;47.70;101367.63;5014232;28;20406;-81
2022/11/30 08:31:35;;;;;;;15.73;13.98;;;;;;;18.39;47.46;101368.59;5015474;28;20056;-81
2022/11/30 08:34:12;;;;;;;16.73;13.88;;;;;;;18.37;47.38;101362.47;5014953;28;20056;-81
2022/11/30 08:36:39;;;;;;;17.63;13.05;;;;;;;18.35;47.49;101356.38;5015465;28;20049;-81
2022/11/30 08:39:08;;;;;;;14.88;13.38;;;;;;;18.35;47.25;101363.53;5015701;28;20513;-81
2022/11/30 08:41:35;;;;;;;17.73;14.18;;;;;;;18.33;47.10;101355.63;5013325;28;20073;-82
2022/11/30 08:44:03;;;;;;;15.57;14.07;;;;;;;18.33;47.03;101357.44;5014850;28;20042;-81
2022/11/30 08:46:31;;;;;;;16.65;15.05;;;;;;;18.33;46.97;101370.84;5014686;28;20049;-82
2022/11/30 08:49:19;;;;;;;16.08;14.40;;;;;;;18.32;46.81;101375.34;5015508;28;20046;-81
2022/11/30 08:51:51;;;;;;;17.67;15.25;;;;;;;18.30;46.59;101363.88;5014964;28;20050;-81
2022/11/30 08:54:41;;;;;;;17.95;16.08;;;;;;;18.30;46.87;101366.56;5014524;28;20375;-81
2022/11/30 08:57:08;;;;;;;16.83;15.05;;;;;;;18.29;46.73;101373.75;5014919;28;20056;-80
2022/11/30 08:59:36;;;;;;;17.08;15.18;;;;;;;18.28;46.58;101373.88;5018319;28;20065;-81
2022/11/30 09:02:04;;;;;;;19.45;16.23;;;;;;;18.28;46.71;101368.50;5018670;28;20053;-81
2022/11/30 09:04:32;;;;;;;17.35;14.77;;;;;;;18.27;46.77;101383.75;5018084;28;20498;-81
2022/11/30 09:06:59;;;;;;;16.45;13.48;;;;;;;18.28;47.16;101374.72;5017976;28;20387;-80
2022/11/30 09:09:27;;;;;;;13.82;12.15;;;;;;;18.30;47.49;101379.97;5018152;28;20410;-80
2022/11/30 09:11:54;;;;;;;29.05;14.38;;;;;;;18.30;47.10;101382.63;5016779;28;20053;-80
2022/11/30 09:14:22;;;;;;;21.40;16.40;;;;;;;18.29;46.18;101384.47;5018197;28;20054;-81
2022/11/30 09:16:49;;;;;;;18.80;16.05;;;;;;;18.29;46.14;101388.97;5017991;28;20046;-80
2022/11/30 09:19:16;;;;;;;18.48;16.52;;;;;;;18.27;46.02;101389.09;5018145;28;20049;-81
2022/11/30 09:21:44;;;;;;;18.70;16.65;;;;;;;18.24;46.29;101389.31;5017613;28;20042;-80
2022/11/30 09:24:19;;;;;;;21.65;19.35;;;;;;;18.01;45.92;101393.63;5032684;28;20065;-80
2022/11/30 09:26:46;;;;;;;24.58;22.02;;;;;;;17.79;46.13;101394.31;5017489;28;20046;-79
2022/11/30 09:29:14;;;;;;;24.45;17.60;;;;;;;17.79;46.93;101388.09;5017093;28;20050;-81
2022/11/30 09:31:41;;;;;;;15.77;13.48;;;;;;;17.86;48.55;101385.84;5017802;28;20041;-81
2022/11/30 09:34:10;;;;;;;15.70;12.82;;;;;;;17.92;48.89;101378.22;5018055;28;20053;-81
2022/11/30 09:36:38;;;;;;;14.98;11.82;;;;;;;17.99;49.23;101378.66;5016689;28;20050;-81
2022/11/30 09:39:08;;;;;;;13.85;11.10;;;;;;;18.05;50.04;101383.56;5017949;28;20048;-80
2022/11/30 09:41:57;;;;;;;12.50;9.85;;;;;;;18.10;50.29;101381.41;5016142;28;20050;-80
2022/11/30 09:44:45;;;;;;;13.98;10.20;;;;;;;18.15;50.39;101386.41;5017722;28;20072;-80
2022/11/30 09:47:39;;;;;;;11.13;8.93;;;;;;;18.19;50.74;101386.13;5017528;28;20424;-80
2022/11/30 09:50:14;;;;;;;;;;;;;;;18.20;50.65;101379.78;5016385;28;20490;-81
2022/11/30 09:53:01;;;;;;;10.05;8.35;;;;;;;18.23;50.75;101376.88;5017826;28;19928;-81
2022/11/30 09:55:34;;;;;;;10.48;7.95;;;;;;;18.25;50.53;101380.31;5018180;28;20050;-81
2022/11/30 09:58:04;;;;;;;10.13;8.82;;;;;;;18.26;50.55;101373.97;5017887;28;20057;-81
2022/11/30 10:00:33;;;;;;;9.70;7.63;;;;;;;18.27;50.39;101372.13;5017621;28;20038;-81
2022/11/30 10:03:04;;;;;;;10.70;7.82;;;;;;;18.28;50.48;101376.56;4998026;28;20383;-81
2022/11/30 10:06:14;;;;;;;10.15;7.88;;;;;;;18.30;50.18;101379.97;4998518;28;20054;-81
2022/11/30 10:08:41;;;;;;;9.85;7.78;;;;;;;18.31;50.20;101367.41;4997448;28;20058;-80
2022/11/30 10:11:35;;;;;;;9.13;6.82;;;;;;;18.31;50.44;101368.28;4997746;28;20046;-80
2022/11/30 10:14:14;;;;;;;9.18;7.53;;;;;;;18.33;50.43;101370.84;4996462;28;20061;-80
2022/11/30 10:17:13;;;;;;;10.25;7.15;;;;;;;18.32;50.14;101367.31;4997911;28;20054;-81
2022/11/30 10:19:53;;;;;;;9.18;7.55;;;;;;;18.33;50.21;101369.03;4997628;28;20046;-81
2022/11/30 10:22:49;;;;;;;9.93;7.65;;;;;;;18.33;50.25;101366.34;4997902;28;20060;-81
2022/11/30 10:25:28;;;;;;;8.98;7.35;;;;;;;18.34;50.26;101367.19;4995828;28;20062;-81
2022/11/30 10:28:04;;;;;;;7.38;6.28;;;;;;;18.34;50.08;101354.63;4997869;28;20540;-82
2022/11/30 10:30:51;;;;;;;9.30;6.68;;;;;;;18.34;50.29;101362.69;4997536;28;20042;-81
2022/11/30 10:33:26;;;;;;;9.48;7.00;;;;;;;18.34;50.14;101357.31;4996498;28;20050;-81
2022/11/30 10:35:57;;;;;;;8.57;7.20;;;;;;;18.34;49.83;101354.63;4997839;28;20046;-80
2022/11/30 10:38:32;;;;;;;8.60;6.38;;;;;;;18.35;49.86;101350.13;4996250;28;20042;-80
2022/11/30 10:41:07;;;;;;;9.10;7.07;;;;;;;18.34;49.46;101348.44;4999632;28;20057;-80
2022/11/30 10:44:00;;;;;;;10.80;8.60;;;;;;;18.34;49.04;101353.78;5015138;28;20069;-79
2022/11/30 10:46:31;;;;;;;8.57;6.40;;;;;;;18.34;49.90;101354.63;5016551;28;20195;-80
2022/11/30 10:49:06;;;;;;;11.00;7.32;;;;;;;18.34;49.99;101346.59;5015842;28;20072;-78
2022/11/30 10:51:38;;;;;;;10.25;8.32;;;;;;;18.35;49.24;101347.44;5013769;28;20046;-78
2022/11/30 10:54:14;;;;;;;8.93;6.80;;;;;;;18.35;49.84;101347.44;5015859;28;20049;-80
2022/11/30 10:56:42;;;;;;;10.40;6.53;;;;;;;18.34;50.08;101346.59;5015483;28;20046;-77
2022/11/30 10:59:26;;;;;;;6.97;6.18;;;;;;;18.34;49.86;101337.72;5015647;28;20045;-78
2022/11/30 11:01:53;;;;;;;9.80;7.00;;;;;;;18.35;50.09;101345.66;5015827;28;20042;-78
2022/11/30 11:04:24;;;;;;;9.88;6.30;;;;;;;18.35;49.95;101342.97;5015722;28;20046;-77
2022/11/30 11:06:54;;;;;;;9.05;6.80;;;;;;;18.35;50.21;101342.97;5015375;28;20046;-78
2022/11/30 11:09:51;;;;;;;6.85;6.15;;;;;;;18.37;50.25;101337.50;5016436;28;20057;-77
2022/11/30 11:12:25;;;;;;;8.70;6.68;;;;;;;18.35;50.10;101337.63;5010101;28;20057;-78
2022/11/30 11:15:16;;;;;;;8.75;6.35;;;;;;;18.36;50.28;101333.09;5015580;28;20054;-77
2022/11/30 11:17:44;;;;;;;8.68;6.55;;;;;;;18.37;50.54;101332.13;5015450;28;20049;-77
2022/11/30 11:20:33;;;;;;;7.72;6.13;;;;;;;18.36;50.65;101328.59;5013655;28;20041;-77
2022/11/30 11:23:02;;;;;;;7.78;6.80;;;;;;;18.37;50.62;101332.97;5014661;28;20386;-77
2022/11/30 11:25:35;;;;;;;7.22;5.97;;;;;;;18.38;50.40;101333.84;5015424;28;20049;-78
2022/11/30 11:28:11;;;;;;;7.53;6.63;;;;;;;18.38;50.56;101331.16;5014461;28;20057;-78
2022/11/30 11:30:39;;;;;;;7.70;6.43;;;;;;;18.37;50.49;101322.25;5015246;28;20058;-78
2022/11/30 11:33:12;;;;;;;7.53;5.70;;;;;;;18.39;50.39;101327.50;5015227;28;20052;-78
2022/11/30 11:35:42;;;;;;;9.15;5.60;;;;;;;18.38;50.03;101320.44;5015384;28;20046;-78
2022/11/30 11:38:39;;;;;;;7.05;5.50;;;;;;;18.38;50.15;101315.06;5014047;28;20053;-78
2022/11/30 11:41:30;;;;;;;7.97;5.95;;;;;;;18.38;50.30;101310.56;5015004;28;20054;-78
2022/11/30 11:44:20;;;;;;;7.72;6.55;;;;;;;18.39;50.12;101308.72;4995361;28;20398;-78